Time;durP1;ratioP1;P1;durP2;ratioP2;P2;SDS_P1;SDS_P2;PMS_P1;PMS_P2;Temp;Humidity;BMP_temperature;BMP_pressure;BME280_temperature;BME280_humidity;BME280_pressure;Samples;Min_cycle;Max_cycle;Signal;HPM_P1;HPM_P2
2022/04/24 00:01:41;;;;;;;648.17;582.73;;;;;;;10.76;80.32;94344.78;5002554;28;20188;-88
2022/04/24 00:04:07;;;;;;;825.00;731.70;;;;;;;11.00;80.61;94385.16;5026910;28;20172;-88
2022/04/24 00:06:32;;;;;;;782.63;699.67;;;;;;;10.76;80.17;94345.59;5020964;28;20180;-87
2022/04/24 00:08:58;;;;;;;1287.37;876.17;;;;;;;10.75;80.27;94353.69;5011126;28;20231;-87
2022/04/24 00:11:24;;;;;;;1504.70;929.87;;;;;;;10.72;80.54;94347.09;5010317;28;20203;-86
2022/04/24 00:13:49;;;;;;;1854.57;999.60;;;;;;;10.57;80.35;94325.59;5005948;28;20185;-88
2022/04/24 00:16:15;;;;;;;1973.77;999.90;;;;;;;11.02;80.83;94412.88;5008092;28;20172;-87
2022/04/24 00:18:41;;;;;;;1999.90;999.90;;;;;;;10.86;80.70;94389.81;4993438;28;20378;-87
2022/04/24 00:21:07;;;;;;;1999.90;999.90;;;;;;;10.72;80.83;94376.03;5001669;28;20686;-87
2022/04/24 00:23:33;;;;;;;1999.90;999.90;;;;;;;10.63;80.89;94358.16;5021759;28;20203;-86
2022/04/24 00:25:59;;;;;;;1999.90;999.90;;;;;;;10.81;80.89;94400.22;5007462;28;20361;-86
2022/04/24 00:28:25;;;;;;;1999.90;999.90;;;;;;;10.59;80.87;94370.94;5019760;28;20262;-85
2022/04/24 00:30:50;;;;;;;1999.90;999.90;;;;;;;10.32;81.04;94330.19;5003159;28;20650;-86
2022/04/24 00:33:16;;;;;;;1999.90;999.90;;;;;;;10.42;81.21;94348.88;5026853;28;20198;-87
2022/04/24 00:35:42;;;;;;;1999.90;999.90;;;;;;;10.78;81.42;94403.28;5005542;28;21281;-87
2022/04/24 00:38:07;;;;;;;1999.90;999.90;;;;;;;10.83;81.29;94427.09;5018068;28;20179;-86
2022/04/24 00:40:33;;;;;;;1999.90;999.90;;;;;;;10.59;81.52;94386.72;4999782;28;20570;-86
2022/04/24 00:42:59;;;;;;;1999.90;999.90;;;;;;;10.73;81.80;94411.03;5002809;28;20192;-87
2022/04/24 00:45:24;;;;;;;1999.90;999.90;;;;;;;10.46;81.65;94379.81;5027057;28;20558;-87
2022/04/24 00:47:50;;;;;;;1999.90;999.90;;;;;;;10.43;81.55;94388.13;5024263;28;20238;-89
2022/04/24 00:50:17;;;;;;;1999.90;999.90;;;;;;;10.51;81.59;94390.47;5017867;28;20254;-86
2022/04/24 00:52:43;;;;;;;1999.90;999.90;;;;;;;10.56;81.57;94402.94;5019568;28;20175;-85
2022/04/24 00:55:09;;;;;;;1999.90;999.90;;;;;;;10.26;81.82;94360.81;5021887;28;20177;-85
2022/04/24 00:57:35;;;;;;;1999.90;999.90;;;;;;;10.20;82.00;94353.81;5006546;28;20229;-85
2022/04/24 01:00:01;;;;;;;1999.90;999.90;;;;;;;10.57;82.24;94426.41;5000939;28;20210;-85
2022/04/24 01:02:26;;;;;;;1999.90;999.90;;;;;;;10.19;82.18;94374.06;5025773;28;20642;-85
2022/04/24 01:04:52;;;;;;;1999.90;999.90;;;;;;;10.06;82.33;94352.31;5023268;28;20210;-86
2022/04/24 01:07:18;;;;;;;1002.33;901.43;;;;;;;10.10;82.56;94370.09;5024596;28;20212;-86
2022/04/24 01:09:44;;;;;;;1181.53;999.90;;;;;;;10.08;82.39;94366.06;5023200;28;20604;-85
2022/04/24 01:12:09;;;;;;;1221.07;999.90;;;;;;;9.81;82.18;94326.13;5018833;28;20675;-85
2022/04/24 01:14:36;;;;;;;1255.93;999.90;;;;;;;10.47;82.47;94433.22;5004737;28;20264;-84
2022/04/24 01:17:04;;;;;;;1287.17;999.90;;;;;;;10.42;83.09;94419.94;5024262;28;20175;-85
2022/04/24 01:19:30;;;;;;;1275.50;999.90;;;;;;;10.42;82.41;94428.63;5027732;28;20578;-84
2022/04/24 01:21:56;;;;;;;1254.30;999.90;;;;;;;10.46;82.55;94450.06;5004319;28;20179;-84
2022/04/24 01:24:23;;;;;;;1259.90;999.90;;;;;;;10.44;82.39;94446.84;5033178;28;20171;-84
2022/04/24 01:26:49;;;;;;;1249.20;999.90;;;;;;;10.40;82.32;94438.56;5035518;28;20186;-84
2022/04/24 01:29:17;;;;;;;1216.43;999.90;;;;;;;10.45;82.09;94449.25;5024333;28;20185;-83
2022/04/24 01:31:48;;;;;;;1200.87;999.90;;;;;;;10.43;82.31;94447.84;5028571;28;20171;-83
2022/04/24 01:34:14;;;;;;;1202.37;999.90;;;;;;;9.94;82.22;94375.13;5030798;28;20187;-84
2022/04/24 01:36:40;;;;;;;1187.50;999.90;;;;;;;10.39;82.45;94454.56;5026633;28;20191;-84
2022/04/24 01:39:05;;;;;;;1208.30;999.90;;;;;;;10.01;82.69;94407.41;5029086;28;20622;-84
2022/04/24 01:41:31;;;;;;;1220.20;999.90;;;;;;;10.29;82.53;94451.66;5005028;28;20296;-85
2022/04/24 01:43:57;;;;;;;1226.67;999.90;;;;;;;9.80;82.79;94380.50;5026048;28;20659;-85
2022/04/24 01:46:23;;;;;;;1211.10;999.90;;;;;;;10.19;82.86;94447.72;5021105;28;20178;-85
2022/04/24 01:48:49;;;;;;;1225.83;999.90;;;;;;;9.67;82.56;94371.97;5021125;28;20192;-85
2022/04/24 01:51:14;;;;;;;1174.63;999.90;;;;;;;9.84;82.44;94392.22;5002972;28;20707;-84
2022/04/24 01:53:41;;;;;;;1132.80;999.90;;;;;;;10.17;82.43;94455.00;5023491;28;20180;-85
2022/04/24 01:56:07;;;;;;;1189.40;999.90;;;;;;;10.15;82.85;94466.72;5006590;28;20218;-85
2022/04/24 01:58:34;;;;;;;1183.33;999.90;;;;;;;10.12;82.87;94462.69;5024024;28;20230;-85
2022/04/24 02:01:00;;;;;;;1225.73;999.90;;;;;;;10.06;82.96;94444.34;5023504;28;20180;-84
2022/04/24 02:03:28;;;;;;;1204.03;999.90;;;;;;;9.88;82.53;94426.72;5024232;28;20202;-85
2022/04/24 02:05:53;;;;;;;1180.33;999.90;;;;;;;10.02;82.69;94451.09;5022397;28;20708;-85
2022/04/24 02:08:19;;;;;;;1220.10;999.90;;;;;;;10.07;82.91;94462.56;5025750;28;20426;-85
2022/04/24 02:10:45;;;;;;;1177.47;999.90;;;;;;;9.67;82.93;94399.03;5020678;28;20176;-84
2022/04/24 02:13:10;;;;;;;1167.20;999.90;;;;;;;10.00;82.89;94455.75;5005838;28;20233;-85
2022/04/24 02:15:36;;;;;;;1134.40;999.90;;;;;;;9.98;82.74;94463.03;5020854;28;20265;-84
2022/04/24 02:18:02;;;;;;;1168.87;999.90;;;;;;;9.93;82.63;94466.34;5024999;28;20168;-85
2022/04/24 02:20:30;;;;;;;1137.13;999.90;;;;;;;9.95;83.16;94466.09;5025884;28;20629;-84
2022/04/24 02:22:59;;;;;;;1171.70;999.90;;;;;;;9.76;82.69;94433.75;5024580;28;20165;-85
2022/04/24 02:25:26;;;;;;;1155.83;999.90;;;;;;;9.91;82.67;94467.56;5024116;28;20200;-84
2022/04/24 02:27:55;;;;;;;1142.13;999.90;;;;;;;9.45;82.74;94403.88;5021361;28;20246;-84
2022/04/24 02:30:26;;;;;;;1081.63;991.00;;;;;;;9.85;82.28;94471.88;5023489;28;20226;-84
2022/04/24 02:32:51;;;;;;;1117.93;999.90;;;;;;;9.42;82.37;94412.19;5005711;28;20692;-84
2022/04/24 02:35:17;;;;;;;1162.07;999.90;;;;;;;9.41;83.22;94422.91;5001422;28;20165;-83
2022/04/24 02:37:44;;;;;;;1208.60;999.90;;;;;;;9.43;83.32;94428.72;5026738;28;20310;-84
2022/04/24 02:40:10;;;;;;;1180.90;999.90;;;;;;;9.71;83.46;94478.25;5023143;28;20218;-84
2022/04/24 02:42:38;;;;;;;1147.43;999.90;;;;;;;9.65;83.06;94463.34;5006183;28;20183;-84
2022/04/24 02:45:08;;;;;;;1161.20;999.90;;;;;;;9.28;83.10;94405.41;5009437;28;20259;-84
2022/04/24 02:47:34;;;;;;;1117.53;999.90;;;;;;;9.28;82.85;94410.66;5021893;28;20172;-85
2022/04/24 02:50:01;;;;;;;1142.27;999.90;;;;;;;9.37;82.88;94429.59;5019913;28;20195;-85
2022/04/24 02:52:26;;;;;;;1097.73;999.90;;;;;;;9.56;82.74;94465.44;5020561;28;20318;-84
2022/04/24 02:54:52;;;;;;;1161.53;999.90;;;;;;;9.15;83.45;94413.41;5019831;28;20202;-84
2022/04/24 02:57:18;;;;;;;1196.37;999.90;;;;;;;9.39;83.39;94449.38;5019987;28;20172;-84
2022/04/24 02:59:45;;;;;;;1168.77;999.90;;;;;;;9.37;83.08;94445.34;5023148;28;20259;-84
2022/04/24 03:02:14;;;;;;;1144.30;999.90;;;;;;;9.56;83.12;94481.19;5025439;28;20203;-84
2022/04/24 03:04:40;;;;;;;1181.20;999.90;;;;;;;9.21;83.65;94430.94;5019389;28;20176;-84
2022/04/24 03:07:06;;;;;;;1189.13;999.90;;;;;;;9.25;83.78;94442.63;5024484;28;20176;-86
2022/04/24 03:09:32;;;;;;;1183.93;999.90;;;;;;;9.34;83.59;94462.34;4999862;28;20235;-85
2022/04/24 03:11:58;;;;;;;1137.10;999.90;;;;;;;9.45;83.82;94474.78;5006687;28;20180;-84
2022/04/24 03:14:23;;;;;;;1153.97;999.90;;;;;;;9.12;83.34;94420.88;5020438;28;20192;-84
2022/04/24 03:16:49;;;;;;;1154.57;999.90;;;;;;;9.06;83.88;94427.81;5021546;28;20161;-84
2022/04/24 03:19:14;;;;;;;1148.87;999.90;;;;;;;9.35;84.13;94484.97;5023106;28;20164;-82
2022/04/24 03:21:40;;;;;;;1152.70;999.90;;;;;;;9.39;84.13;94490.59;5026634;28;20183;-83
2022/04/24 03:24:05;;;;;;;1192.93;999.90;;;;;;;9.14;85.61;94469.56;5021686;28;20172;-83
2022/04/24 03:26:31;;;;;;;1254.27;999.90;;;;;;;9.06;85.64;94446.97;5021378;28;20275;-83
2022/04/24 03:28:57;;;;;;;854.43;789.87;;;;;;;9.29;85.04;94490.25;5023368;28;20196;-84
2022/04/24 03:31:23;;;;;;;807.10;745.63;;;;;;;8.95;85.03;94437.16;5023163;28;21677;-83
2022/04/24 03:33:50;;;;;;;614.90;572.30;;;;;;;9.39;84.63;94499.28;5020351;28;20187;-84
2022/04/24 03:36:15;;;;;;;352.13;329.70;;;;;;;9.34;83.83;94507.00;5019681;28;20661;-84
2022/04/24 03:38:41;;;;;;;632.97;588.53;;;;;;;8.99;84.27;94454.06;5024173;28;20164;-84
2022/04/24 03:41:06;;;;;;;844.87;779.57;;;;;;;9.39;84.50;94501.13;5019979;28;20172;-83
2022/04/24 03:43:32;;;;;;;646.63;598.67;;;;;;;8.82;84.79;94418.06;5025689;28;20596;-84
2022/04/24 03:45:57;;;;;;;960.63;878.07;;;;;;;8.70;85.59;94428.41;5023203;28;20179;-83
2022/04/24 03:48:23;;;;;;;1007.03;929.13;;;;;;;9.01;85.56;94477.50;5008075;28;20211;-84
2022/04/24 03:50:48;;;;;;;861.23;797.90;;;;;;;8.96;86.04;94475.50;5003345;28;20172;-84
2022/04/24 03:53:14;;;;;;;789.37;732.13;;;;;;;9.17;85.73;94492.75;5023130;28;20219;-85
2022/04/24 03:55:39;;;;;;;787.73;732.50;;;;;;;9.26;85.15;94506.44;5017846;28;20180;-85
2022/04/24 03:58:05;;;;;;;684.87;637.30;;;;;;;9.32;84.73;94511.66;5004781;28;20168;-85
2022/04/24 04:00:30;;;;;;;410.93;383.30;;;;;;;9.06;84.59;94451.44;5021552;28;20177;-85
2022/04/24 04:02:56;;;;;;;260.67;242.33;;;;;;;9.39;84.22;94486.16;5022115;28;20173;-85
2022/04/24 04:05:22;;;;;;;238.97;223.47;;;;;;;9.01;83.98;94419.75;5022911;28;20218;-85
2022/04/24 04:07:48;;;;;;;24.23;9.70;;;;;;;9.59;83.37;94482.59;5000639;28;20627;-85
2022/04/24 04:10:14;;;;;;;18.30;7.73;;;;;;;9.80;83.37;94514.56;5024391;28;20219;-85
2022/04/24 04:12:40;;;;;;;22.63;9.30;;;;;;;9.96;83.52;94513.22;5019437;28;20675;-85
2022/04/24 04:15:06;;;;;;;16.93;9.23;;;;;;;9.78;82.28;94464.03;5007829;28;20271;-85
2022/04/24 04:17:32;;;;;;;14.73;8.57;;;;;;;10.24;82.13;94510.16;5019279;28;20266;-86
2022/04/24 04:19:59;;;;;;;15.73;8.63;;;;;;;10.35;82.60;94503.41;5003026;28;20255;-86
2022/04/24 04:22:25;;;;;;;16.63;7.27;;;;;;;10.33;82.33;94471.22;5003913;28;20634;-86
2022/04/24 04:24:51;;;;;;;26.43;8.67;;;;;;;10.50;81.91;94474.88;5019107;28;20251;-86
2022/04/24 04:27:17;;;;;;;17.27;7.83;;;;;;;10.50;81.52;94443.31;5020712;28;20172;-86
2022/04/24 04:29:44;;;;;;;21.73;8.07;;;;;;;10.96;81.18;94487.50;5021972;28;20192;-85
2022/04/24 04:32:09;;;;;;;19.57;8.40;;;;;;;11.22;80.58;94495.06;5002868;28;20176;-85
2022/04/24 04:34:35;;;;;;;22.40;8.67;;;;;;;11.61;79.58;94513.97;5021262;28;20550;-86
2022/04/24 04:37:00;;;;;;;19.30;8.50;;;;;;;11.48;78.77;94464.91;5018897;28;20165;-86
2022/04/24 04:39:26;;;;;;;29.27;16.90;;;;;;;11.14;77.57;94389.22;5003397;28;20169;-85
2022/04/24 04:41:51;;;;;;;27.50;15.87;;;;;;;11.75;77.50;94469.81;5022006;28;20172;-86
2022/04/24 04:44:17;;;;;;;24.30;14.23;;;;;;;12.36;77.90;94543.28;5005525;28;20169;-86
2022/04/24 04:46:43;;;;;;;19.17;11.40;;;;;;;12.31;76.70;94504.34;5021234;28;20595;-85
2022/04/24 04:49:08;;;;;;;13.73;8.37;;;;;;;12.20;76.59;94460.28;5028211;28;20191;-86
2022/04/24 04:51:35;;;;;;;15.97;7.97;;;;;;;12.60;76.50;94499.19;5005125;28;20186;-85
2022/04/24 04:54:00;;;;;;;9.90;6.70;;;;;;;13.16;75.05;94551.34;5007955;28;20187;-85
2022/04/24 04:56:26;;;;;;;9.90;6.50;;;;;;;13.07;74.02;94505.94;5025223;28;20168;-86
2022/04/24 04:58:51;;;;;;;17.57;6.50;;;;;;;13.20;73.12;94494.34;5023057;28;20152;-86
2022/04/24 05:01:17;;;;;;;14.53;5.50;;;;;;;13.38;71.18;94499.44;5023614;28;20176;-85
2022/04/24 05:03:42;;;;;;;10.50;5.57;;;;;;;13.37;70.42;94489.91;5008121;28;20195;-85
2022/04/24 05:06:08;;;;;;;9.20;5.80;;;;;;;13.49;71.09;94482.72;5024613;28;20187;-86
2022/04/24 05:08:33;;;;;;;10.33;5.60;;;;;;;13.86;70.44;94500.81;5004234;28;20710;-85
2022/04/24 05:10:59;;;;;;;13.03;5.33;;;;;;;14.21;70.14;94524.38;5027999;28;20172;-86
2022/04/24 05:13:25;;;;;;;8.27;4.70;;;;;;;14.65;68.54;94552.63;5021623;28;20171;-86
2022/04/24 05:15:50;;;;;;;10.50;5.63;;;;;;;14.79;68.08;94529.22;5020614;28;20173;-86
2022/04/24 05:18:16;;;;;;;6.80;5.17;;;;;;;14.95;67.42;94530.25;5022924;28;20254;-85
2022/04/24 05:20:43;;;;;;;9.37;4.57;;;;;;;15.02;66.82;94499.06;5027936;28;20606;-85
2022/04/24 05:23:10;;;;;;;7.97;4.37;;;;;;;15.46;66.11;94523.72;5006459;28;20662;-88
2022/04/24 05:25:36;;;;;;;7.30;4.47;;;;;;;15.38;63.87;94471.91;5027817;28;20164;-86
2022/04/24 05:28:03;;;;;;;6.90;4.50;;;;;;;15.68;61.69;94491.84;5011060;28;20190;-88
2022/04/24 05:30:29;;;;;;;9.40;4.70;;;;;;;16.05;61.76;94529.88;5009418;28;20214;-90
2022/04/24 05:32:55;;;;;;;9.03;4.47;;;;;;;16.05;60.22;94513.16;5007193;28;20642;-88
2022/04/24 05:35:21;;;;;;;10.67;4.47;;;;;;;16.42;60.98;94561.00;5009970;28;20181;-89
2022/04/24 05:37:47;;;;;;;10.70;4.95;;;;;;;16.36;60.60;94522.94;5007964;28;20707;-89
2022/04/24 05:40:14;;;;;;;7.20;4.73;;;;;;;16.76;59.28;94554.38;5025715;28;20168;-89
2022/04/24 05:42:54;;;;;;;10.80;4.80;;;;;;;17.13;60.78;94554.28;5008423;28;20717;-90
2022/04/24 05:45:22;;;;;;;9.07;4.65;;;;;;;17.52;58.29;94564.59;5014064;28;20187;-90
2022/04/24 05:47:51;;;;;;;9.85;5.50;;;;;;;17.36;57.27;94507.84;5011464;28;20642;-88
2022/04/24 05:50:18;;;;;;;9.60;5.10;;;;;;;17.48;57.32;94529.69;5009355;28;20202;-92
2022/04/24 05:52:43;;;;;;;8.38;5.35;;;;;;;17.61;57.59;94536.41;5018885;28;20267;-91
2022/04/24 05:55:10;;;;;;;9.27;5.30;;;;;;;17.49;59.15;94487.91;5008096;28;20561;-90
2022/04/24 05:57:36;;;;;;;10.18;6.35;;;;;;;18.09;57.13;94519.19;5005267;28;20231;-88
2022/04/24 06:00:04;;;;;;;16.90;6.93;;;;;;;18.34;56.16;94524.53;5023117;28;20157;-83
2022/04/24 06:02:30;;;;;;;7.90;5.10;;;;;;;18.75;56.18;94525.34;5029419;28;20584;-82
2022/04/24 06:04:56;;;;;;;12.55;5.93;;;;;;;19.51;55.96;94565.19;5031748;28;20177;-82
2022/04/24 06:07:23;;;;;;;14.75;6.20;;;;;;;19.40;53.76;94490.69;5009228;28;20184;-84
2022/04/24 06:09:49;;;;;;;12.38;7.28;;;;;;;19.50;52.58;94480.00;5029947;28;20739;-83
2022/04/24 06:12:14;;;;;;;11.13;6.70;;;;;;;19.55;51.84;94478.09;5025747;28;20168;-82
2022/04/24 06:14:40;;;;;;;17.33;8.90;;;;;;;19.78;53.68;94502.56;5029778;28;20278;-84
2022/04/24 06:17:05;;;;;;;12.27;7.20;;;;;;;19.79;50.93;94510.28;5018650;28;20165;-85
2022/04/24 06:19:31;;;;;;;13.23;7.82;;;;;;;19.55;51.85;94520.81;5001536;28;20165;-85
2022/04/24 06:21:57;;;;;;;11.95;6.55;;;;;;;19.75;52.36;94541.28;5020711;28;20210;-84
2022/04/24 06:24:22;;;;;;;11.25;6.60;;;;;;;19.95;51.49;94530.50;5021860;28;20222;-85
2022/04/24 06:26:48;;;;;;;11.68;7.25;;;;;;;19.78;51.73;94497.22;5021557;28;20160;-84
2022/04/24 06:29:13;;;;;;;16.35;6.63;;;;;;;19.86;52.28;94467.22;5024578;28;20578;-84
2022/04/24 06:31:39;;;;;;;19.70;7.47;;;;;;;20.32;51.56;94479.16;5027086;28;20167;-83
2022/04/24 06:34:05;;;;;;;9.30;5.93;;;;;;;20.49;49.65;94504.72;5021293;28;20169;-84
2022/04/24 06:36:31;;;;;;;16.40;6.75;;;;;;;20.07;49.83;94527.47;5022760;28;20541;-84
2022/04/24 06:38:56;;;;;;;10.88;5.95;;;;;;;19.91;50.81;94505.38;5019455;28;20215;-84
2022/04/24 06:41:22;;;;;;;14.05;5.25;;;;;;;20.31;51.30;94523.03;5021606;28;20172;-85
2022/04/24 06:43:47;;;;;;;10.13;5.60;;;;;;;20.46;49.70;94508.75;5024497;28;20200;-84
2022/04/24 06:46:13;;;;;;;45.30;6.00;;;;;;;20.72;48.50;94544.09;5021905;28;20225;-85
2022/04/24 06:48:38;;;;;;;14.00;6.15;;;;;;;20.20;48.74;94489.41;5002642;28;20284;-85
2022/04/24 06:51:04;;;;;;;11.65;6.30;;;;;;;20.40;51.23;94490.38;5006368;28;20180;-85
2022/04/24 06:53:30;;;;;;;7.60;5.13;;;;;;;20.68;49.09;94452.91;5002464;28;20230;-86
2022/04/24 06:55:56;;;;;;;9.57;5.28;;;;;;;21.45;49.83;94491.13;5025207;28;20728;-81
2022/04/24 06:58:24;;;;;;;39.40;5.70;;;;;;;22.18;46.78;94532.78;5024788;28;20172;-81
2022/04/24 07:00:50;;;;;;;58.47;9.93;;;;;;;21.61;46.23;94523.91;5002332;28;20562;-82
2022/04/24 07:03:23;;;;;;;63.13;7.80;;;;;;;21.53;48.37;94521.84;5021251;28;20168;-83
2022/04/24 07:05:50;;;;;;;55.22;7.40;;;;;;;21.96;48.30;94519.13;5024095;28;20172;-83
2022/04/24 07:08:15;;;;;;;60.80;8.77;;;;;;;22.47;46.42;94514.63;5022619;28;20180;-83
2022/04/24 07:10:41;;;;;;;52.92;6.68;;;;;;;22.49;48.18;94485.59;5022570;28;20199;-83
2022/04/24 07:13:06;;;;;;;10.95;5.07;;;;;;;22.40;45.08;94459.75;5005260;28;20183;-83
2022/04/24 07:15:39;;;;;;;75.93;9.50;;;;;;;22.55;44.75;94505.09;5020228;28;20552;-83
2022/04/24 07:18:05;;;;;;;69.20;8.48;;;;;;;22.26;43.68;94472.31;5023895;28;20172;-82
2022/04/24 07:20:31;;;;;;;55.22;6.72;;;;;;;22.31;44.46;94465.00;5021467;28;20173;-81
2022/04/24 07:23:01;;;;;;;67.00;11.52;;;;;;;22.92;44.97;94509.56;5005429;28;20173;-81
2022/04/24 07:25:28;;;;;;;62.63;8.27;;;;;;;23.07;43.40;94497.75;5023629;28;20654;-81
2022/04/24 07:27:54;;;;;;;58.70;7.60;;;;;;;23.16;42.33;94504.84;5020686;28;20172;-81
2022/04/24 07:30:21;;;;;;;57.78;7.85;;;;;;;23.09;43.64;94492.91;5023949;28;20195;-81
2022/04/24 07:32:48;;;;;;;60.83;9.90;;;;;;;22.73;44.37;94471.25;5019732;28;20582;-79
2022/04/24 07:35:16;;;;;;;59.30;9.95;;;;;;;22.98;42.49;94494.16;5025358;28;20262;-80
2022/04/24 07:37:42;;;;;;;60.60;8.02;;;;;;;22.69;42.59;94467.53;5025797;28;20187;-80
2022/04/24 07:40:10;;;;;;;61.85;12.73;;;;;;;22.93;43.33;94495.84;5027046;28;20194;-80
2022/04/24 07:43:05;;;;;;;58.65;8.88;;;;;;;23.19;43.89;94495.38;5014792;28;20200;-79
2022/04/24 07:45:40;;;;;;;61.92;11.45;;;;;;;23.33;43.69;94499.66;5025611;28;20666;-83
2022/04/24 07:48:08;;;;;;;64.45;12.80;;;;;;;23.30;42.01;94489.50;5012296;28;20191;-83
2022/04/24 07:50:36;;;;;;;58.05;9.38;;;;;;;23.26;44.62;94493.88;5031006;28;20210;-83
2022/04/24 07:53:03;;;;;;;70.03;15.30;;;;;;;23.74;44.10;94477.34;5027167;28;20172;-85
2022/04/24 07:55:29;;;;;;;56.88;8.75;;;;;;;23.83;42.89;94434.38;5025529;28;20192;-84
2022/04/24 07:57:57;;;;;;;61.83;11.93;;;;;;;24.21;40.44;94448.34;5022490;28;20555;-84
2022/04/24 08:00:26;;;;;;;60.17;11.73;;;;;;;24.43;40.43;94467.16;5022992;28;20176;-84
2022/04/24 08:03:02;;;;;;;59.08;13.77;;;;;;;24.29;40.07;94483.38;5019233;28;20178;-84
2022/04/24 08:05:54;;;;;;;60.25;13.65;;;;;;;23.96;42.00;94476.56;5023035;28;22049;-85
2022/04/24 08:08:21;;;;;;;58.35;10.77;;;;;;;24.14;43.45;94481.00;4998924;28;20201;-84
2022/04/24 08:10:49;;;;;;;62.75;13.82;;;;;;;24.29;39.23;94478.00;5019689;28;20194;-84
2022/04/24 08:13:16;;;;;;;60.95;10.27;;;;;;;24.00;40.18;94429.16;5025993;28;20196;-89
2022/04/24 08:15:43;;;;;;;71.68;12.90;;;;;;;24.22;39.90;94457.97;5021473;28;20164;-87
2022/04/24 08:18:10;;;;;;;58.53;12.88;;;;;;;24.51;41.59;94446.78;5000672;28;20197;-86
2022/04/24 08:20:36;;;;;;;57.88;11.10;;;;;;;24.90;39.95;94454.09;5021162;28;20255;-88
2022/04/24 08:23:03;;;;;;;78.38;11.25;;;;;;;24.92;38.18;94422.28;5005074;28;20176;-81
2022/04/24 08:25:33;;;;;;;106.47;14.55;;;;;;;24.92;37.69;94431.16;5025091;28;20169;-83
2022/04/24 08:27:59;;;;;;;93.90;12.18;;;;;;;24.90;38.14;94449.53;5029895;28;20187;-82
2022/04/24 08:30:25;;;;;;;55.42;7.97;;;;;;;24.71;37.26;94405.88;5026154;28;20302;-82
2022/04/24 08:32:51;;;;;;;88.63;12.80;;;;;;;24.96;37.53;94437.53;5025272;28;20188;-82
2022/04/24 08:35:19;;;;;;;58.75;10.65;;;;;;;25.23;37.13;94447.28;5023005;28;20196;-82
2022/04/24 08:37:45;;;;;;;103.45;13.30;;;;;;;25.14;37.59;94444.56;5029628;28;20180;-82
2022/04/24 08:40:12;;;;;;;90.72;13.73;;;;;;;25.02;38.27;94433.56;5029877;28;20206;-82
2022/04/24 08:42:40;;;;;;;80.03;14.18;;;;;;;24.68;43.73;94438.78;5007890;28;20214;-82
2022/04/24 08:45:08;;;;;;;57.63;10.57;;;;;;;24.64;39.31;94433.25;5028324;28;20183;-81
2022/04/24 08:47:33;;;;;;;112.57;14.82;;;;;;;24.44;38.09;94417.59;5027306;28;20188;-81
2022/04/24 08:50:00;;;;;;;51.22;7.88;;;;;;;24.59;40.12;94435.25;5024989;28;20200;-81
2022/04/24 08:52:28;;;;;;;72.32;11.10;;;;;;;24.06;38.32;94388.38;5026318;28;20231;-82
2022/04/24 08:54:55;;;;;;;95.47;11.68;;;;;;;24.47;40.81;94433.16;5025943;28;20654;-80
2022/04/24 08:57:26;;;;;;;78.55;9.88;;;;;;;24.57;38.85;94426.69;5024113;28;20657;-81
2022/04/24 08:59:55;;;;;;;94.03;18.48;;;;;;;24.64;39.88;94424.38;5020652;28;20167;-80
2022/04/24 09:02:21;;;;;;;86.53;16.15;;;;;;;24.71;38.10;94419.31;5009688;28;20187;-79
2022/04/24 09:04:46;;;;;;;105.25;16.60;;;;;;;24.61;39.00;94424.97;5030296;28;20175;-81
2022/04/24 09:07:17;;;;;;;87.80;18.60;;;;;;;24.52;38.94;94419.53;5022230;28;20198;-81
2022/04/24 09:09:51;;;;;;;83.95;15.25;;;;;;;24.66;39.89;94406.78;5006936;28;20285;-80
2022/04/24 09:12:28;;;;;;;91.82;12.50;;;;;;;24.47;38.07;94413.50;5027200;28;20188;-80
2022/04/24 09:14:56;;;;;;;76.85;12.05;;;;;;;24.19;39.07;94394.78;5024768;28;20167;-84
2022/04/24 09:17:35;;;;;;;44.55;8.15;;;;;;;24.42;41.51;94400.97;5025105;28;20168;-80
2022/04/24 09:20:14;;;;;;;59.45;9.35;;;;;;;24.25;40.62;94398.19;5026026;28;20217;-80
2022/04/24 09:22:39;;;;;;;63.60;10.75;;;;;;;23.78;39.63;94365.41;5030283;28;20171;-87
2022/04/24 09:25:06;;;;;;;51.08;6.55;;;;;;;23.87;40.37;94371.63;5009609;28;20263;-86
2022/04/24 09:27:34;;;;;;;73.20;9.35;;;;;;;23.77;40.87;94368.41;5002119;28;20180;-86
2022/04/24 09:30:13;;;;;;;67.78;11.70;;;;;;;23.92;40.91;94392.22;5025037;28;20692;-85
2022/04/24 09:32:51;;;;;;;99.53;15.90;;;;;;;23.88;41.27;94397.41;5026958;28;20717;-85
2022/04/24 09:35:31;;;;;;;61.45;11.43;;;;;;;23.82;39.04;94373.66;5022466;28;20781;-83
2022/04/24 09:38:14;;;;;;;52.72;8.30;;;;;;;23.93;41.31;94375.78;5023420;28;20175;-82
2022/04/24 09:40:44;;;;;;;66.32;11.93;;;;;;;23.60;39.03;94367.19;5023765;28;20180;-82
2022/04/24 09:43:10;;;;;;;53.75;8.50;;;;;;;23.12;41.46;94355.31;5026477;28;20226;-82
2022/04/24 09:45:37;;;;;;;57.85;10.73;;;;;;;23.19;42.15;94336.88;5022585;28;20176;-82
2022/04/24 09:48:11;;;;;;;55.97;14.45;;;;;;;23.42;38.72;94335.84;5028783;28;20262;-82
2022/04/24 09:50:38;;;;;;;154.52;15.63;;;;;;;23.75;39.67;94360.63;5025821;28;20203;-83
2022/04/24 09:53:05;;;;;;;78.25;10.15;;;;;;;23.94;42.16;94349.69;5025915;28;20646;-82
2022/04/24 09:55:31;;;;;;;55.38;7.93;;;;;;;23.64;37.97;94284.03;5022999;28;20172;-82
2022/04/24 09:57:57;;;;;;;85.15;12.65;;;;;;;23.87;38.82;94333.22;5025672;28;20678;-82
2022/04/24 10:00:23;;;;;;;71.57;7.43;;;;;;;23.52;38.96;94342.91;5026519;28;20188;-82
2022/04/24 10:02:50;;;;;;;108.88;15.38;;;;;;;23.08;39.92;94330.16;5025022;28;20168;-81
2022/04/24 10:05:17;;;;;;;91.82;8.73;;;;;;;22.47;41.09;94291.16;5023858;28;20598;-82
2022/04/24 10:07:43;;;;;;;83.72;10.77;;;;;;;22.60;43.09;94333.25;5020763;28;20763;-82
2022/04/24 10:10:09;;;;;;;99.53;12.65;;;;;;;22.82;41.83;94328.03;5027780;28;20255;-82
2022/04/24 10:12:35;;;;;;;76.90;12.93;;;;;;;22.99;42.33;94316.66;5025920;28;20168;-82
2022/04/24 10:15:05;;;;;;;78.95;14.55;;;;;;;23.27;41.73;94317.38;5025275;28;20176;-82
2022/04/24 10:18:08;;;;;;;62.70;11.85;;;;;;;23.49;42.30;94312.06;5006948;28;20184;-82
2022/04/24 10:21:32;;;;;;;68.53;13.20;;;;;;;23.69;40.96;94308.09;5027237;28;20677;-82
2022/04/24 10:24:08;;;;;;;94.55;8.65;;;;;;;23.81;40.10;94310.22;4907139;29;20203;-82
2022/04/24 10:26:34;;;;;;;96.90;19.25;;;;;;;23.68;42.83;94296.56;4995294;28;20217;-82
2022/04/24 10:29:08;;;;;;;59.75;14.10;;;;;;;23.62;41.77;94273.56;5022285;28;20192;-82
2022/04/24 10:31:48;;;;;;;65.70;12.88;;;;;;;23.84;40.34;94312.31;5022052;28;20188;-83
2022/04/24 10:34:15;;;;;;;112.45;17.02;;;;;;;23.79;40.15;94294.38;5022583;28;20658;-82
2022/04/24 10:37:23;;;;;;;61.63;13.63;;;;;;;23.68;39.51;94310.00;5027600;28;20238;-83
2022/04/24 10:39:55;;;;;;;55.17;6.38;;;;;;;23.17;40.65;94304.19;4982363;28;20216;-82
2022/04/24 10:42:30;;;;;;;87.25;13.10;;;;;;;23.07;42.30;94294.47;5024392;28;20676;-83
2022/04/24 10:45:05;;;;;;;120.43;12.20;;;;;;;23.15;41.42;94298.31;5025910;28;20618;-82
2022/04/24 10:47:50;;;;;;;67.00;19.20;;;;;;;22.80;40.06;94263.09;5023851;28;20229;-82
2022/04/24 10:50:18;;;;;;;63.88;13.68;;;;;;;23.05;40.66;94288.59;5025393;28;20215;-83
2022/04/24 10:52:45;;;;;;;67.80;11.63;;;;;;;23.21;43.47;94289.84;5024021;28;20172;-83
2022/04/24 10:55:15;;;;;;;64.22;10.38;;;;;;;23.35;42.76;94286.31;5026800;28;20187;-83
2022/04/24 10:57:46;;;;;;;54.47;8.20;;;;;;;23.49;42.20;94281.72;5027180;28;20184;-82
2022/04/24 11:00:22;;;;;;;80.43;13.88;;;;;;;23.62;41.77;94289.69;5003717;28;20558;-81
2022/04/24 11:02:49;;;;;;;87.28;12.90;;;;;;;23.70;41.90;94291.66;5010481;28;20664;-81
2022/04/24 11:05:26;;;;;;;72.90;10.93;;;;;;;23.51;40.04;94266.88;5025418;28;20179;-82
2022/04/24 11:08:02;;;;;;;65.82;13.90;;;;;;;23.69;40.02;94276.66;5022979;28;20395;-79
2022/04/24 11:10:28;;;;;;;59.92;6.28;;;;;;;23.61;39.38;94268.53;5020257;28;20203;-82
2022/04/24 11:12:54;;;;;;;55.25;9.27;;;;;;;23.44;40.56;94279.91;5025515;28;20180;-82
2022/04/24 11:15:21;;;;;;;30.02;10.10;;;;;;;23.04;39.96;94216.41;5005990;28;20180;-82
2022/04/24 11:17:46;;;;;;;80.90;9.45;;;;;;;23.16;40.07;94203.22;5010763;28;20179;-82